South Waltham, Massachusetts
Current Conditions -  °F | °C
As of 9:56 PM on Monday 20 Oct 2014 (Local Time) from KBED Reporting Station
Clear Clear  
Wind Chill: 43°   Ceiling: Unl
Heat Index: 46°   Visibility: 10mi
Dew Point: 37°   Wind: 6mph
Humidity: 71%   Direction: 210°SSW
Pressure: 30"   Gusts: NA
Location:  42.3696°N, 71.2353°W
Report Text: KBED 210156Z 21005KT 10SM CLR 08/03 A3000 RMK AO2 SLP172 T00780028
Loading
Personal Weather Stations






























Interactive Weather Map
Tropical Storm Tracking
New forecast layout! Learn more

10-Day Weather Forecast

Advertisements
Track Severe Weather on mobile